sensor_id;sensor_type;location;lat;lon;timestamp;pressure;altitude;pressure_sealevel;temperature;humidity
80892;BME280;70343;51.530;5.050;2023-08-12T00:02:08;101734.13;;;21.93;95.70
80892;BME280;70343;51.530;5.050;2023-08-12T00:04:34;101729.53;;;21.89;95.78
80892;BME280;70343;51.530;5.050;2023-08-12T00:06:59;101723.81;;;21.97;94.62
80892;BME280;70343;51.530;5.050;2023-08-12T00:09:25;101725.44;;;21.98;95.32
80892;BME280;70343;51.530;5.050;2023-08-12T00:11:50;101728.50;;;21.90;95.40
80892;BME280;70343;51.530;5.050;2023-08-12T00:14:15;101716.72;;;22.02;93.73
80892;BME280;70343;51.530;5.050;2023-08-12T00:16:41;101719.66;;;21.84;96.23
80892;BME280;70343;51.530;5.050;2023-08-12T00:19:07;101713.91;;;21.92;94.25
80892;BME280;70343;51.530;5.050;2023-08-12T00:21:33;101706.38;;;21.84;95.81
80892;BME280;70343;51.530;5.050;2023-08-12T00:23:59;101712.00;;;21.88;94.81
80892;BME280;70343;51.530;5.050;2023-08-12T00:26:24;101709.16;;;21.94;93.52
80892;BME280;70343;51.530;5.050;2023-08-12T00:28:50;101707.06;;;21.96;94.08
80892;BME280;70343;51.530;5.050;2023-08-12T00:31:16;101704.50;;;22.01;93.21
80892;BME280;70343;51.530;5.050;2023-08-12T00:33:42;101698.88;;;21.98;93.99
80892;BME280;70343;51.530;5.050;2023-08-12T00:36:07;101700.97;;;21.96;94.49
80892;BME280;70343;51.530;5.050;2023-08-12T00:38:33;101693.88;;;22.01;93.82
80892;BME280;70343;51.530;5.050;2023-08-12T00:40:58;101691.00;;;21.86;94.95
80892;BME280;70343;51.530;5.050;2023-08-12T00:43:24;101689.63;;;21.84;94.92
80892;BME280;70343;51.530;5.050;2023-08-12T00:45:49;101684.19;;;21.79;95.26
80892;BME280;70343;51.530;5.050;2023-08-12T00:48:16;101680.03;;;21.83;96.09
80892;BME280;70343;51.530;5.050;2023-08-12T00:50:42;101682.34;;;21.79;95.31
80892;BME280;70343;51.530;5.050;2023-08-12T00:53:09;101673.19;;;21.87;94.68
80892;BME280;70343;51.530;5.050;2023-08-12T00:55:34;101671.03;;;21.84;94.36
80892;BME280;70343;51.530;5.050;2023-08-12T00:58:01;101672.06;;;21.83;94.90
80892;BME280;70343;51.530;5.050;2023-08-12T01:00:27;101674.53;;;21.73;94.70
80892;BME280;70343;51.530;5.050;2023-08-12T01:02:53;101672.78;;;21.62;96.74
80892;BME280;70343;51.530;5.050;2023-08-12T01:05:19;101668.59;;;21.66;96.47
80892;BME280;70343;51.530;5.050;2023-08-12T01:07:45;101663.78;;;21.63;96.23
80892;BME280;70343;51.530;5.050;2023-08-12T01:10:12;101655.25;;;21.61;95.95
80892;BME280;70343;51.530;5.050;2023-08-12T01:13:26;101653.22;;;21.68;95.89
80892;BME280;70343;51.530;5.050;2023-08-12T01:15:56;101651.63;;;21.67;95.67
80892;BME280;70343;51.530;5.050;2023-08-12T01:18:24;101643.97;;;21.54;96.14
80892;BME280;70343;51.530;5.050;2023-08-12T01:20:49;101645.09;;;21.58;95.97
80892;BME280;70343;51.530;5.050;2023-08-12T01:23:16;101640.59;;;21.58;97.28
80892;BME280;70343;51.530;5.050;2023-08-12T01:25:42;101637.78;;;21.48;98.08
80892;BME280;70343;51.530;5.050;2023-08-12T01:28:08;101641.09;;;21.55;96.51
80892;BME280;70343;51.530;5.050;2023-08-12T01:30:37;101644.28;;;21.57;95.97
80892;BME280;70343;51.530;5.050;2023-08-12T01:33:09;101637.63;;;21.55;96.01
80892;BME280;70343;51.530;5.050;2023-08-12T01:35:41;101634.81;;;21.61;95.44
80892;BME280;70343;51.530;5.050;2023-08-12T01:38:09;101627.66;;;21.62;95.41
80892;BME280;70343;51.530;5.050;2023-08-12T01:40:36;101630.56;;;21.60;96.50
80892;BME280;70343;51.530;5.050;2023-08-12T01:43:03;101611.81;;;21.50;98.12
80892;BME280;70343;51.530;5.050;2023-08-12T01:45:32;101619.47;;;21.47;97.28
80892;BME280;70343;51.530;5.050;2023-08-12T01:47:58;101617.13;;;21.50;97.06
80892;BME280;70343;51.530;5.050;2023-08-12T01:50:24;101611.31;;;21.37;98.70
80892;BME280;70343;51.530;5.050;2023-08-12T01:52:52;101615.03;;;21.36;97.76
80892;BME280;70343;51.530;5.050;2023-08-12T01:55:18;101623.56;;;21.38;98.75
80892;BME280;70343;51.530;5.050;2023-08-12T01:57:43;101616.31;;;21.50;97.14
80892;BME280;70343;51.530;5.050;2023-08-12T02:00:09;101621.22;;;21.41;97.45
80892;BME280;70343;51.530;5.050;2023-08-12T02:02:43;101623.13;;;21.46;96.87
80892;BME280;70343;51.530;5.050;2023-08-12T02:05:12;101615.19;;;21.46;96.98
80892;BME280;70343;51.530;5.050;2023-08-12T02:07:38;101618.25;;;21.38;98.40
80892;BME280;70343;51.530;5.050;2023-08-12T02:10:04;101612.59;;;21.34;97.83
80892;BME280;70343;51.530;5.050;2023-08-12T02:12:30;101605.13;;;21.14;99.26
80892;BME280;70343;51.530;5.050;2023-08-12T02:14:56;101610.59;;;21.24;98.48
80892;BME280;70343;51.530;5.050;2023-08-12T02:17:21;101610.59;;;21.24;99.06
80892;BME280;70343;51.530;5.050;2023-08-12T02:19:47;101602.75;;;21.30;98.57
80892;BME280;70343;51.530;5.050;2023-08-12T02:22:12;101599.91;;;21.19;99.69
80892;BME280;70343;51.530;5.050;2023-08-12T02:24:38;101597.50;;;21.18;99.37
80892;BME280;70343;51.530;5.050;2023-08-12T02:27:03;101593.34;;;21.22;99.43
80892;BME280;70343;51.530;5.050;2023-08-12T02:29:29;101602.38;;;21.26;99.89
80892;BME280;70343;51.530;5.050;2023-08-12T02:31:54;101599.59;;;21.16;99.15
80892;BME280;70343;51.530;5.050;2023-08-12T02:34:20;101598.91;;;21.09;100.00
80892;BME280;70343;51.530;5.050;2023-08-12T02:36:45;101597.16;;;21.14;99.66
80892;BME280;70343;51.530;5.050;2023-08-12T02:39:12;101596.38;;;21.14;99.69
80892;BME280;70343;51.530;5.050;2023-08-12T02:41:38;101590.91;;;21.20;98.75
80892;BME280;70343;51.530;5.050;2023-08-12T02:44:04;101582.53;;;21.28;97.64
80892;BME280;70343;51.530;5.050;2023-08-12T02:46:29;101579.66;;;21.13;99.11
80892;BME280;70343;51.530;5.050;2023-08-12T02:48:55;101579.66;;;21.13;98.80
80892;BME280;70343;51.530;5.050;2023-08-12T02:51:20;101568.66;;;20.93;100.00
80892;BME280;70343;51.530;5.050;2023-08-12T02:53:46;101564.97;;;20.94;100.00
80892;BME280;70343;51.530;5.050;2023-08-12T02:56:11;101568.31;;;21.01;98.98
80892;BME280;70343;51.530;5.050;2023-08-12T02:58:37;101562.22;;;20.89;100.00
80892;BME280;70343;51.530;5.050;2023-08-12T03:01:03;101556.84;;;20.84;100.00
80892;BME280;70343;51.530;5.050;2023-08-12T03:03:29;101552.09;;;20.86;100.00
80892;BME280;70343;51.530;5.050;2023-08-12T03:05:55;101556.59;;;20.86;99.46
80892;BME280;70343;51.530;5.050;2023-08-12T03:08:20;101564.47;;;20.81;100.00
80892;BME280;70343;51.530;5.050;2023-08-12T03:10:47;101561.25;;;20.79;100.00
80892;BME280;70343;51.530;5.050;2023-08-12T03:13:14;101564.97;;;20.94;98.91
80892;BME280;70343;51.530;5.050;2023-08-12T03:15:40;101555.66;;;20.92;99.21
80892;BME280;70343;51.530;5.050;2023-08-12T03:18:06;101562.75;;;21.03;97.97
80892;BME280;70343;51.530;5.050;2023-08-12T03:20:32;101549.28;;;21.04;97.88
80892;BME280;70343;51.530;5.050;2023-08-12T03:22:57;101545.69;;;20.99;98.33
80892;BME280;70343;51.530;5.050;2023-08-12T03:25:23;101539.06;;;20.68;100.00
80892;BME280;70343;51.530;5.050;2023-08-12T03:27:48;101536.91;;;20.82;99.41
80892;BME280;70343;51.530;5.050;2023-08-12T03:30:14;101539.41;;;20.88;98.73
80892;BME280;70343;51.530;5.050;2023-08-12T03:32:41;101533.38;;;20.93;98.38
80892;BME280;70343;51.530;5.050;2023-08-12T03:35:07;101527.03;;;20.94;98.24
80892;BME280;70343;51.530;5.050;2023-08-12T03:37:33;101532.03;;;20.90;98.86
80892;BME280;70343;51.530;5.050;2023-08-12T03:40:00;101533.22;;;20.99;98.04
80892;BME280;70343;51.530;5.050;2023-08-12T03:42:26;101531.63;;;20.98;98.41
80892;BME280;70343;51.530;5.050;2023-08-12T03:44:52;101526.81;;;20.95;98.65
80892;BME280;70343;51.530;5.050;2023-08-12T03:47:17;101521.44;;;20.90;98.92
80892;BME280;70343;51.530;5.050;2023-08-12T03:49:47;101519.81;;;20.89;99.44
80892;BME280;70343;51.530;5.050;2023-08-12T03:52:13;101514.19;;;20.86;99.71
80892;BME280;70343;51.530;5.050;2023-08-12T03:54:38;101502.19;;;20.83;99.44
80892;BME280;70343;51.530;5.050;2023-08-12T03:57:04;101503.25;;;20.82;100.00
80892;BME280;70343;51.530;5.050;2023-08-12T03:59:31;101501.31;;;20.78;100.00
80892;BME280;70343;51.530;5.050;2023-08-12T04:01:56;101503.09;;;20.72;100.00
80892;BME280;70343;51.530;5.050;2023-08-12T04:04:23;101500.19;;;20.74;100.00
80892;BME280;70343;51.530;5.050;2023-08-12T04:06:48;101498.59;;;20.73;100.00
80892;BME280;70343;51.530;5.050;2023-08-12T04:09:17;101489.38;;;20.75;100.00
80892;BME280;70343;51.530;5.050;2023-08-12T04:11:43;101489.19;;;20.65;100.00
80892;BME280;70343;51.530;5.050;2023-08-12T04:14:09;101482.66;;;20.56;100.00
80892;BME280;70343;51.530;5.050;2023-08-12T04:16:34;101465.41;;;20.54;100.00
80892;BME280;70343;51.530;5.050;2023-08-12T04:19:00;101467.38;;;20.47;100.00
80892;BME280;70343;51.530;5.050;2023-08-12T04:21:25;101471.22;;;20.39;100.00
80892;BME280;70343;51.530;5.050;2023-08-12T04:23:51;101465.94;;;20.39;100.00
80892;BME280;70343;51.530;5.050;2023-08-12T04:26:17;101461.56;;;20.33;100.00
80892;BME280;70343;51.530;5.050;2023-08-12T04:28:42;101462.06;;;20.30;100.00
80892;BME280;70343;51.530;5.050;2023-08-12T04:31:08;101478.97;;;20.29;100.00
80892;BME280;70343;51.530;5.050;2023-08-12T04:33:34;101485.09;;;20.29;100.00
80892;BME280;70343;51.530;5.050;2023-08-12T04:35:59;101490.31;;;20.24;100.00
80892;BME280;70343;51.530;5.050;2023-08-12T04:38:25;101489.50;;;20.12;100.00
80892;BME280;70343;51.530;5.050;2023-08-12T04:40:54;101481.25;;;20.09;100.00
80892;BME280;70343;51.530;5.050;2023-08-12T04:43:20;101483.31;;;20.07;100.00
80892;BME280;70343;51.530;5.050;2023-08-12T04:45:47;101481.16;;;19.92;100.00
80892;BME280;70343;51.530;5.050;2023-08-12T04:48:14;101484.03;;;19.91;100.00
80892;BME280;70343;51.530;5.050;2023-08-12T04:50:42;101481.28;;;19.86;100.00
80892;BME280;70343;51.530;5.050;2023-08-12T04:53:07;101475.19;;;19.85;100.00
80892;BME280;70343;51.530;5.050;2023-08-12T04:55:36;101465.75;;;19.89;100.00
80892;BME280;70343;51.530;5.050;2023-08-12T04:58:02;101454.72;;;19.81;100.00
80892;BME280;70343;51.530;5.050;2023-08-12T05:00:28;101468.44;;;19.78;100.00
80892;BME280;70343;51.530;5.050;2023-08-12T05:02:54;101459.34;;;19.74;100.00
80892;BME280;70343;51.530;5.050;2023-08-12T05:05:20;101454.19;;;19.67;100.00
80892;BME280;70343;51.530;5.050;2023-08-12T05:07:46;101455.56;;;19.70;100.00
80892;BME280;70343;51.530;5.050;2023-08-12T05:10:16;101447.50;;;19.65;100.00
80892;BME280;70343;51.530;5.050;2023-08-12T05:12:42;101444.28;;;19.63;100.00
80892;BME280;70343;51.530;5.050;2023-08-12T05:15:09;101449.13;;;19.66;100.00
80892;BME280;70343;51.530;5.050;2023-08-12T05:17:35;101442.44;;;19.63;100.00
80892;BME280;70343;51.530;5.050;2023-08-12T05:20:01;101444.28;;;19.63;100.00
80892;BME280;70343;51.530;5.050;2023-08-12T05:22:26;101444.28;;;19.63;100.00
80892;BME280;70343;51.530;5.050;2023-08-12T05:24:51;101445.09;;;19.63;100.00
80892;BME280;70343;51.530;5.050;2023-08-12T05:27:17;101444.19;;;19.58;100.00
80892;BME280;70343;51.530;5.050;2023-08-12T05:29:43;101438.66;;;19.59;100.00
80892;BME280;70343;51.530;5.050;2023-08-12T05:32:08;101433.03;;;19.56;100.00
80892;BME280;70343;51.530;5.050;2023-08-12T05:34:34;101434.63;;;19.57;100.00
80892;BME280;70343;51.530;5.050;2023-08-12T05:36:59;101435.91;;;19.54;100.00
80892;BME280;70343;51.530;5.050;2023-08-12T05:39:25;101438.78;;;19.52;100.00
80892;BME280;70343;51.530;5.050;2023-08-12T05:41:50;101432.47;;;19.53;100.00
80892;BME280;70343;51.530;5.050;2023-08-12T05:44:17;101425.09;;;19.56;100.00
80892;BME280;70343;51.530;5.050;2023-08-12T05:46:43;101431.97;;;19.57;100.00
80892;BME280;70343;51.530;5.050;2023-08-12T05:49:08;101422.25;;;19.45;100.00
80892;BME280;70343;51.530;5.050;2023-08-12T05:51:34;101426.50;;;19.46;100.00
80892;BME280;70343;51.530;5.050;2023-08-12T05:53:59;101422.34;;;19.50;100.00
80892;BME280;70343;51.530;5.050;2023-08-12T05:56:25;101432.47;;;19.53;100.00
80892;BME280;70343;51.530;5.050;2023-08-12T05:58:50;101431.06;;;19.51;100.00
80892;BME280;70343;51.530;5.050;2023-08-12T06:01:17;101429.81;;;19.53;100.00
80892;BME280;70343;51.530;5.050;2023-08-12T06:03:42;101420.97;;;19.48;100.00
80892;BME280;70343;51.530;5.050;2023-08-12T06:06:08;101424.41;;;19.48;100.00
80892;BME280;70343;51.530;5.050;2023-08-12T06:08:33;101420.06;;;19.42;100.00
80892;BME280;70343;51.530;5.050;2023-08-12T06:10:59;101422.47;;;19.44;100.00
80892;BME280;70343;51.530;5.050;2023-08-12T06:13:24;101422.50;;;19.32;100.00
80892;BME280;70343;51.530;5.050;2023-08-12T06:15:50;101417.63;;;19.29;100.00
80892;BME280;70343;51.530;5.050;2023-08-12T06:18:16;101413.38;;;19.28;100.00
80892;BME280;70343;51.530;5.050;2023-08-12T06:20:41;101411.31;;;19.42;100.00
80892;BME280;70343;51.530;5.050;2023-08-12T06:23:06;101408.44;;;19.43;100.00
80892;BME280;70343;51.530;5.050;2023-08-12T06:25:32;101412.31;;;19.52;100.00
80892;BME280;70343;51.530;5.050;2023-08-12T06:27:57;101413.81;;;19.48;100.00
80892;BME280;70343;51.530;5.050;2023-08-12T06:30:23;101403.63;;;19.40;100.00
80892;BME280;70343;51.530;5.050;2023-08-12T06:32:49;101405.78;;;19.55;100.00
80892;BME280;70343;51.530;5.050;2023-08-12T06:35:14;101411.91;;;19.44;100.00
80892;BME280;70343;51.530;5.050;2023-08-12T06:37:40;101401.56;;;19.42;100.00
80892;BME280;70343;51.530;5.050;2023-08-12T06:40:07;101402.69;;;19.46;100.00
80892;BME280;70343;51.530;5.050;2023-08-12T06:42:32;101402.69;;;19.46;100.00
80892;BME280;70343;51.530;5.050;2023-08-12T06:44:59;101406.00;;;19.53;100.00
80892;BME280;70343;51.530;5.050;2023-08-12T06:47:29;101394.84;;;19.51;100.00
80892;BME280;70343;51.530;5.050;2023-08-12T06:49:55;101394.72;;;19.58;100.00
80892;BME280;70343;51.530;5.050;2023-08-12T06:52:20;101399.88;;;19.65;100.00
80892;BME280;70343;51.530;5.050;2023-08-12T06:54:46;101404.03;;;19.61;100.00
80892;BME280;70343;51.530;5.050;2023-08-12T06:57:11;101397.47;;;19.63;100.00
80892;BME280;70343;51.530;5.050;2023-08-12T06:59:38;101392.88;;;19.59;100.00
80892;BME280;70343;51.530;5.050;2023-08-12T07:02:03;101395.88;;;19.62;100.00
80892;BME280;70343;51.530;5.050;2023-08-12T07:04:29;101391.69;;;19.66;100.00
80892;BME280;70343;51.530;5.050;2023-08-12T07:06:55;101400.56;;;19.72;100.00
80892;BME280;70343;51.530;5.050;2023-08-12T07:09:20;101396.41;;;19.76;100.00
80892;BME280;70343;51.530;5.050;2023-08-12T07:11:46;101398.09;;;19.82;100.00
80892;BME280;70343;51.530;5.050;2023-08-12T07:14:11;101394.88;;;19.80;100.00
80892;BME280;70343;51.530;5.050;2023-08-12T07:16:36;101396.59;;;19.86;100.00
80892;BME280;70343;51.530;5.050;2023-08-12T07:19:02;101394.19;;;19.84;100.00
80892;BME280;70343;51.530;5.050;2023-08-12T07:21:27;101403.13;;;19.95;100.00
80892;BME280;70343;51.530;5.050;2023-08-12T07:23:53;101404.84;;;20.01;100.00
80892;BME280;70343;51.530;5.050;2023-08-12T07:26:18;101399.03;;;20.04;100.00
80892;BME280;70343;51.530;5.050;2023-08-12T07:28:44;101397.47;;;20.03;100.00
80892;BME280;70343;51.530;5.050;2023-08-12T07:31:09;101390.25;;;20.15;100.00
80892;BME280;70343;51.530;5.050;2023-08-12T07:33:35;101390.88;;;20.33;100.00
80892;BME280;70343;51.530;5.050;2023-08-12T07:36:01;101402.03;;;20.35;100.00
80892;BME280;70343;51.530;5.050;2023-08-12T07:38:27;101396.25;;;20.38;100.00
80892;BME280;70343;51.530;5.050;2023-08-12T07:40:53;101392.72;;;20.33;100.00
80892;BME280;70343;51.530;5.050;2023-08-12T07:43:19;101395.47;;;20.38;100.00
80892;BME280;70343;51.530;5.050;2023-08-12T07:45:44;101398.69;;;20.40;100.00
80892;BME280;70343;51.530;5.050;2023-08-12T07:48:10;101402.34;;;20.39;100.00
80892;BME280;70343;51.530;5.050;2023-08-12T07:50:36;101409.16;;;20.35;100.00
80892;BME280;70343;51.530;5.050;2023-08-12T07:53:01;101410.69;;;20.31;100.00
80892;BME280;70343;51.530;5.050;2023-08-12T07:55:27;101406.53;;;20.35;100.00
80892;BME280;70343;51.530;5.050;2023-08-12T07:57:53;101418.75;;;20.36;100.00
80892;BME280;70343;51.530;5.050;2023-08-12T08:00:19;101419.19;;;20.33;100.00
80892;BME280;70343;51.530;5.050;2023-08-12T08:02:44;101416.09;;;20.36;100.00
80892;BME280;70343;51.530;5.050;2023-08-12T08:05:10;101419.22;;;20.50;100.00
80892;BME280;70343;51.530;5.050;2023-08-12T08:07:35;101420.19;;;20.60;100.00
80892;BME280;70343;51.530;5.050;2023-08-12T08:10:01;101434.00;;;20.62;100.00
80892;BME280;70343;51.530;5.050;2023-08-12T08:12:26;101428.69;;;20.62;100.00
80892;BME280;70343;51.530;5.050;2023-08-12T08:14:52;101430.78;;;20.60;100.00
80892;BME280;70343;51.530;5.050;2023-08-12T08:17:18;101429.44;;;20.74;100.00
80892;BME280;70343;51.530;5.050;2023-08-12T08:19:43;101437.38;;;20.74;100.00
80892;BME280;70343;51.530;5.050;2023-08-12T08:22:08;101446.38;;;20.57;100.00
80892;BME280;70343;51.530;5.050;2023-08-12T08:24:34;101453.88;;;20.31;100.00
80892;BME280;70343;51.530;5.050;2023-08-12T08:26:59;101446.78;;;20.20;100.00
80892;BME280;70343;51.530;5.050;2023-08-12T08:29:25;101455.88;;;20.13;100.00
80892;BME280;70343;51.530;5.050;2023-08-12T08:31:50;101445.28;;;20.13;100.00
80892;BME280;70343;51.530;5.050;2023-08-12T08:34:16;101455.31;;;20.22;100.00
80892;BME280;70343;51.530;5.050;2023-08-12T08:36:42;101449.66;;;20.47;100.00
80892;BME280;70343;51.530;5.050;2023-08-12T08:39:08;101461.47;;;20.73;100.00
80892;BME280;70343;51.530;5.050;2023-08-12T08:41:38;101461.41;;;20.84;100.00
80892;BME280;70343;51.530;5.050;2023-08-12T08:44:07;101457.72;;;21.18;100.00
80892;BME280;70343;51.530;5.050;2023-08-12T08:46:32;101469.47;;;21.44;100.00
80892;BME280;70343;51.530;5.050;2023-08-12T08:48:59;101484.16;;;21.13;100.00
80892;BME280;70343;51.530;5.050;2023-08-12T08:51:25;101482.22;;;20.92;100.00
80892;BME280;70343;51.530;5.050;2023-08-12T08:53:53;101494.88;;;20.74;100.00
80892;BME280;70343;51.530;5.050;2023-08-12T08:56:20;101484.63;;;21.10;100.00
80892;BME280;70343;51.530;5.050;2023-08-12T08:58:46;101482.22;;;21.25;100.00
80892;BME280;70343;51.530;5.050;2023-08-12T09:01:12;101496.38;;;21.31;100.00
80892;BME280;70343;51.530;5.050;2023-08-12T09:03:40;101511.41;;;21.09;100.00
80892;BME280;70343;51.530;5.050;2023-08-12T09:06:06;101508.63;;;21.54;100.00
80892;BME280;70343;51.530;5.050;2023-08-12T09:08:32;101506.97;;;21.86;100.00
80892;BME280;70343;51.530;5.050;2023-08-12T09:10:59;101512.38;;;21.19;96.89
80892;BME280;70343;51.530;5.050;2023-08-12T09:13:25;101516.00;;;21.13;98.20
80892;BME280;70343;51.530;5.050;2023-08-12T09:15:51;101528.69;;;21.28;96.70
80892;BME280;70343;51.530;5.050;2023-08-12T09:18:17;101526.19;;;21.21;98.55
80892;BME280;70343;51.530;5.050;2023-08-12T09:20:42;101525.31;;;21.49;95.55
80892;BME280;70343;51.530;5.050;2023-08-12T09:23:11;101530.69;;;21.76;97.44
80892;BME280;70343;51.530;5.050;2023-08-12T09:25:42;101509.50;;;21.59;93.17
80892;BME280;70343;51.530;5.050;2023-08-12T09:28:11;101509.75;;;21.96;95.48
80892;BME280;70343;51.530;5.050;2023-08-12T09:30:38;101508.16;;;22.22;93.12
80892;BME280;70343;51.530;5.050;2023-08-12T09:33:05;101516.34;;;22.63;93.28
80892;BME280;70343;51.530;5.050;2023-08-12T09:35:38;101512.34;;;22.61;93.86
80892;BME280;70343;51.530;5.050;2023-08-12T09:38:05;101512.66;;;22.64;92.80
80892;BME280;70343;51.530;5.050;2023-08-12T09:40:33;101516.19;;;23.07;94.47
80892;BME280;70343;51.530;5.050;2023-08-12T09:42:59;101517.59;;;22.82;92.04
80892;BME280;70343;51.530;5.050;2023-08-12T09:45:25;101527.75;;;22.37;89.81
80892;BME280;70343;51.530;5.050;2023-08-12T09:47:52;101522.66;;;22.09;92.47
80892;BME280;70343;51.530;5.050;2023-08-12T09:50:17;101525.25;;;21.82;94.07
80892;BME280;70343;51.530;5.050;2023-08-12T09:52:46;101525.34;;;21.54;92.12
80892;BME280;70343;51.530;5.050;2023-08-12T09:55:15;101525.25;;;21.27;90.67
80892;BME280;70343;51.530;5.050;2023-08-12T09:57:43;101524.84;;;21.36;91.75
80892;BME280;70343;51.530;5.050;2023-08-12T10:00:12;101520.31;;;21.53;90.69
80892;BME280;70343;51.530;5.050;2023-08-12T10:02:46;101525.47;;;21.81;89.79
80892;BME280;70343;51.530;5.050;2023-08-12T10:05:18;101526.47;;;22.18;89.55
80892;BME280;70343;51.530;5.050;2023-08-12T10:07:45;101524.13;;;22.22;87.73
80892;BME280;70343;51.530;5.050;2023-08-12T10:10:11;101524.63;;;22.45;86.47
80892;BME280;70343;51.530;5.050;2023-08-12T10:12:38;101519.16;;;22.30;85.34
80892;BME280;70343;51.530;5.050;2023-08-12T10:15:05;101523.38;;;22.26;84.83
80892;BME280;70343;51.530;5.050;2023-08-12T10:17:33;101537.91;;;22.67;87.09
80892;BME280;70343;51.530;5.050;2023-08-12T10:20:00;101526.59;;;21.85;84.63
80892;BME280;70343;51.530;5.050;2023-08-12T10:22:29;101525.00;;;21.67;84.95
80892;BME280;70343;51.530;5.050;2023-08-12T10:24:56;101534.56;;;21.85;86.51
80892;BME280;70343;51.530;5.050;2023-08-12T10:27:23;101532.41;;;21.82;86.44
80892;BME280;70343;51.530;5.050;2023-08-12T10:29:50;101519.63;;;22.00;87.07
80892;BME280;70343;51.530;5.050;2023-08-12T10:32:16;101538.69;;;22.62;87.95
80892;BME280;70343;51.530;5.050;2023-08-12T10:34:42;101533.13;;;22.64;86.28
80892;BME280;70343;51.530;5.050;2023-08-12T10:37:10;101528.75;;;22.79;84.55
80892;BME280;70343;51.530;5.050;2023-08-12T10:39:36;101530.47;;;22.95;81.15
80892;BME280;70343;51.530;5.050;2023-08-12T10:42:02;101537.22;;;23.08;82.80
80892;BME280;70343;51.530;5.050;2023-08-12T10:44:49;101545.09;;;23.25;82.76
80892;BME280;70343;51.530;5.050;2023-08-12T10:47:18;101538.88;;;23.14;82.09
80892;BME280;70343;51.530;5.050;2023-08-12T10:49:48;101539.69;;;23.15;83.35
80892;BME280;70343;51.530;5.050;2023-08-12T10:52:30;101546.69;;;22.94;81.55
80892;BME280;70343;51.530;5.050;2023-08-12T10:55:24;101538.91;;;22.87;83.47
80892;BME280;70343;51.530;5.050;2023-08-12T10:57:52;101530.97;;;23.24;86.13
80892;BME280;70343;51.530;5.050;2023-08-12T11:00:26;101535.31;;;23.03;83.41
80892;BME280;70343;51.530;5.050;2023-08-12T11:02:54;101534.63;;;22.81;82.58
80892;BME280;70343;51.530;5.050;2023-08-12T11:05:20;101535.28;;;22.98;81.52
80892;BME280;70343;51.530;5.050;2023-08-12T11:10:22;101535.47;;;23.19;83.27
80892;BME280;70343;51.530;5.050;2023-08-12T11:17:58;101531.38;;;23.43;81.87
80892;BME280;70343;51.530;5.050;2023-08-12T11:20:24;101528.13;;;23.04;79.40
80892;BME280;70343;51.530;5.050;2023-08-12T11:22:50;101519.66;;;22.75;81.12
80892;BME280;70343;51.530;5.050;2023-08-12T11:25:16;101524.47;;;22.78;82.52
80892;BME280;70343;51.530;5.050;2023-08-12T11:27:45;101536.97;;;23.10;80.04
80892;BME280;70343;51.530;5.050;2023-08-12T11:30:20;101518.94;;;23.48;79.68
80892;BME280;70343;51.530;5.050;2023-08-12T11:32:48;101532.66;;;23.77;80.53
80892;BME280;70343;51.530;5.050;2023-08-12T11:35:16;101525.31;;;23.52;77.07
80892;BME280;70343;51.530;5.050;2023-08-12T11:37:44;101536.69;;;23.89;78.90
80892;BME280;70343;51.530;5.050;2023-08-12T11:40:10;101525.63;;;23.61;75.20
80892;BME280;70343;51.530;5.050;2023-08-12T11:42:41;101527.00;;;23.68;78.29
80892;BME280;70343;51.530;5.050;2023-08-12T11:45:07;101518.03;;;23.84;77.56
80892;BME280;70343;51.530;5.050;2023-08-12T11:47:33;101511.22;;;24.04;78.80
80892;BME280;70343;51.530;5.050;2023-08-12T11:50:05;101520.41;;;24.53;77.89
80892;BME280;70343;51.530;5.050;2023-08-12T11:52:31;101524.41;;;24.45;76.25
80892;BME280;70343;51.530;5.050;2023-08-12T11:54:57;101524.41;;;24.55;77.05
80892;BME280;70343;51.530;5.050;2023-08-12T11:57:23;101518.75;;;24.22;75.61
80892;BME280;70343;51.530;5.050;2023-08-12T11:59:51;101530.78;;;24.39;76.63
80892;BME280;70343;51.530;5.050;2023-08-12T12:02:17;101523.50;;;24.15;72.39
80892;BME280;70343;51.530;5.050;2023-08-12T12:04:42;101521.91;;;24.09;72.92
80892;BME280;70343;51.530;5.050;2023-08-12T12:07:24;101522.56;;;23.84;70.16
80892;BME280;70343;51.530;5.050;2023-08-12T12:09:54;101522.53;;;23.79;73.02
80892;BME280;70343;51.530;5.050;2023-08-12T12:12:26;101524.03;;;24.07;71.21
80892;BME280;70343;51.530;5.050;2023-08-12T12:14:55;101519.25;;;24.09;71.75
80892;BME280;70343;51.530;5.050;2023-08-12T12:17:22;101522.75;;;24.34;74.14
80892;BME280;70343;51.530;5.050;2023-08-12T12:19:55;101515.06;;;24.43;73.03
80892;BME280;70343;51.530;5.050;2023-08-12T12:22:26;101521.72;;;24.35;70.37
80892;BME280;70343;51.530;5.050;2023-08-12T12:24:52;101520.88;;;24.20;71.40
80892;BME280;70343;51.530;5.050;2023-08-12T12:27:18;101522.97;;;24.13;71.25
80892;BME280;70343;51.530;5.050;2023-08-12T12:29:44;101523.16;;;24.01;69.96
80892;BME280;70343;51.530;5.050;2023-08-12T12:32:10;101528.56;;;24.11;71.88
80892;BME280;70343;51.530;5.050;2023-08-12T12:34:35;101526.50;;;24.33;72.24
80892;BME280;70343;51.530;5.050;2023-08-12T12:37:01;101529.16;;;24.38;70.52
80892;BME280;70343;51.530;5.050;2023-08-12T12:39:26;101531.50;;;24.15;68.86
80892;BME280;70343;51.530;5.050;2023-08-12T12:41:52;101532.91;;;24.37;70.04
80892;BME280;70343;51.530;5.050;2023-08-12T12:44:17;101531.03;;;24.28;70.48
80892;BME280;70343;51.530;5.050;2023-08-12T12:46:43;101532.38;;;24.40;69.84
80892;BME280;70343;51.530;5.050;2023-08-12T12:49:08;101538.00;;;24.49;69.81
80892;BME280;70343;51.530;5.050;2023-08-12T12:51:34;101545.69;;;24.35;67.81